Floyd, New Mexico
Current Conditions -  °F | °C
As of 9:56 AM on Friday 24 Oct 2014 (Local Time) from K4MR Reporting Station
Clear Clear  
Wind Chill: 66°   Ceiling: Unl
Heat Index: 66°   Visibility: 10mi
Dew Point: 40°   Wind: 10mph
Humidity: 39%   Direction: 250°WSW
Pressure: 30.25"   Gusts: NA
Location:  34.21°N, 103.58°W
Report Text: K4MR 241556Z AUTO 25009KT 10SM CLR 19/05 A3025 RMK AO2 SLP199 T01900046
Loading
Personal Weather Stations






























Interactive Weather Map
Tropical Storm Tracking
New forecast layout! Learn more

10-Day Weather Forecast

Advertisements
Track Severe Weather on mobile